Time;durP1;ratioP1;P1;durP2;ratioP2;P2;SDS_P1;SDS_P2;PMS_P1;PMS_P2;Temp;Humidity;BMP_temperature;BMP_pressure;BME280_temperature;BME280_humidity;BME280_pressure;Samples;Min_cycle;Max_cycle;Signal;HPM_P1;HPM_P2
2021/04/25 00:00:16;;;;;;;2.38;1.33;;;;;;;26.84;23.82;96978.09;5010370;28;20567;-27
2021/04/25 00:02:41;;;;;;;2.90;1.33;;;;;;;26.83;23.87;96972.00;5007877;28;20033;-39
2021/04/25 00:05:07;;;;;;;2.45;1.15;;;;;;;26.84;23.81;96978.94;5020602;28;20025;-31
2021/04/25 00:07:32;;;;;;;2.50;1.30;;;;;;;26.83;23.75;96977.25;5013429;28;20044;-30
2021/04/25 00:09:58;;;;;;;5.45;1.50;;;;;;;26.84;23.84;96981.59;5016620;28;20634;-32
2021/04/25 00:12:23;;;;;;;1.63;1.08;;;;;;;26.83;23.86;96974.63;5015295;28;20028;-30
2021/04/25 00:14:49;;;;;;;2.83;1.17;;;;;;;26.83;23.80;96982.53;5016309;28;20037;-30
2021/04/25 00:17:14;;;;;;;2.55;1.00;;;;;;;26.83;23.70;96965.88;5017090;28;20030;-30
2021/04/25 00:19:39;;;;;;;4.13;1.50;;;;;;;26.83;23.75;96974.63;5017899;28;20456;-32
2021/04/25 00:22:05;;;;;;;3.72;1.17;;;;;;;26.83;23.76;96977.25;5014252;28;20037;-27
2021/04/25 00:24:30;;;;;;;2.72;0.80;;;;;;;26.82;23.70;96972.94;5019725;28;20087;-32
2021/04/25 00:26:55;;;;;;;3.53;1.30;;;;;;;26.82;23.81;96970.31;5016602;28;20128;-30
2021/04/25 00:29:21;;;;;;;2.55;1.25;;;;;;;26.82;23.67;96975.56;5007030;28;20041;-28
2021/04/25 00:31:46;;;;;;;3.53;1.23;;;;;;;26.81;23.75;96965.97;5012785;28;20033;-29
2021/04/25 00:34:12;;;;;;;3.35;1.17;;;;;;;26.81;23.72;96968.59;5016963;28;20099;-25
2021/04/25 00:36:37;;;;;;;2.13;1.17;;;;;;;26.81;23.79;96963.34;5015745;28;21714;-30
2021/04/25 00:39:04;;;;;;;2.65;1.23;;;;;;;26.81;23.72;96957.25;5009809;28;20466;-26
2021/04/25 00:41:29;;;;;;;2.90;1.13;;;;;;;26.80;23.95;96966.91;5013831;28;20731;-28
2021/04/25 00:43:54;;;;;;;3.47;1.17;;;;;;;26.79;23.75;96959.97;5006788;28;20056;-29
2021/04/25 00:46:20;;;;;;;1.85;1.27;;;;;;;26.81;23.79;96958.06;5017780;28;20103;-28
2021/04/25 00:48:45;;;;;;;2.88;1.50;;;;;;;26.81;23.88;96952.00;5018201;28;20033;-27
2021/04/25 00:51:12;;;;;;;3.97;1.20;;;;;;;26.80;23.84;96955.53;5018507;28;20017;-29
2021/04/25 00:53:38;;;;;;;1.92;1.20;;;;;;;26.80;23.77;96959.03;5012394;28;20090;-28
2021/04/25 00:56:03;;;;;;;2.70;1.35;;;;;;;26.80;23.89;96964.28;5010132;28;20045;-31
2021/04/25 00:58:29;;;;;;;2.45;1.10;;;;;;;26.80;23.74;96961.66;5014325;28;20213;-31
2021/04/25 01:00:54;;;;;;;4.05;1.10;;;;;;;26.80;23.85;96961.66;5009020;28;20298;-30
2021/04/25 01:03:23;;;;;;;2.35;1.38;;;;;;;26.80;23.76;96959.03;5016415;28;20092;-29
2021/04/25 01:05:49;;;;;;;2.15;1.20;;;;;;;26.80;23.86;96956.38;5018384;28;20037;-31
2021/04/25 01:08:14;;;;;;;4.90;1.33;;;;;;;26.80;23.88;96958.16;5014303;28;20530;-28
2021/04/25 01:10:39;;;;;;;1.25;1.02;;;;;;;26.80;23.83;96955.53;5017001;28;20033;-26
2021/04/25 01:13:05;;;;;;;2.40;1.40;;;;;;;26.79;23.93;96957.31;5015794;28;20029;-30
2021/04/25 01:15:30;;;;;;;2.08;1.20;;;;;;;26.79;23.90;96954.69;5015256;28;21638;-31
2021/04/25 01:17:55;;;;;;;2.40;1.15;;;;;;;26.79;23.88;96959.97;5010806;28;20029;-30
2021/04/25 01:20:21;;;;;;;4.07;1.23;;;;;;;26.79;23.82;96951.22;5006307;28;20984;-32
2021/04/25 01:22:47;;;;;;;2.13;1.20;;;;;;;26.79;23.83;96959.97;5011936;28;20132;-30
2021/04/25 01:25:14;;;;;;;2.30;0.93;;;;;;;26.79;23.82;96964.34;5013108;28;20048;-28
2021/04/25 01:27:39;;;;;;;3.35;1.20;;;;;;;26.79;23.78;96954.69;5015131;28;20509;-28
2021/04/25 01:30:06;;;;;;;1.10;0.98;;;;;;;26.78;23.88;96958.28;5010014;28;20025;-28
2021/04/25 01:32:31;;;;;;;4.10;1.20;;;;;;;26.79;23.92;96967.84;5015361;28;20034;-29
2021/04/25 01:34:57;;;;;;;1.80;1.30;;;;;;;26.78;24.08;96962.66;5001116;28;20037;-30
2021/04/25 01:37:22;;;;;;;4.07;1.50;;;;;;;26.78;23.83;96963.53;5010892;28;20258;-31
2021/04/25 01:39:51;;;;;;;2.15;1.40;;;;;;;26.78;23.93;96974.03;5011463;28;20076;-30
2021/04/25 01:42:17;;;;;;;3.22;1.30;;;;;;;26.78;23.87;96979.31;5009155;28;20053;-32
2021/04/25 01:44:42;;;;;;;2.92;1.10;;;;;;;26.78;23.96;96967.94;5007341;28;20124;-28
2021/04/25 01:47:08;;;;;;;1.80;1.10;;;;;;;26.77;23.86;96972.31;5014188;28;20037;-32
2021/04/25 01:49:33;;;;;;;2.92;1.45;;;;;;;26.78;23.85;96974.03;5015864;28;20033;-28
2021/04/25 01:51:59;;;;;;;2.78;1.13;;;;;;;26.78;24.20;96973.19;5007215;28;20052;-31
2021/04/25 01:54:24;;;;;;;2.53;1.27;;;;;;;26.77;23.79;96974.94;5018070;28;20029;-30
2021/04/25 01:56:49;;;;;;;1.98;1.25;;;;;;;26.74;23.95;96978.59;5016631;28;20029;-31
2021/04/25 01:59:15;;;;;;;2.38;1.05;;;;;;;26.77;23.85;96977.56;5011378;28;20037;-28
2021/04/25 02:01:40;;;;;;;1.80;1.15;;;;;;;26.76;23.95;96972.44;5016832;28;20099;-28
2021/04/25 02:04:06;;;;;;;2.30;1.10;;;;;;;26.75;24.02;96979.47;5013092;28;20621;-31
2021/04/25 02:06:32;;;;;;;3.15;1.45;;;;;;;26.76;23.97;96981.16;4993702;28;20036;-30
2021/04/25 02:08:58;;;;;;;3.47;1.40;;;;;;;26.76;23.92;96975.88;4991341;28;20342;-28
2021/04/25 02:11:23;;;;;;;2.08;0.90;;;;;;;26.75;23.89;96979.47;5015212;28;20030;-28
2021/04/25 02:13:49;;;;;;;6.15;1.80;;;;;;;26.76;23.87;96973.25;5015377;28;20036;-29
2021/04/25 02:16:14;;;;;;;3.28;1.25;;;;;;;26.75;23.90;96974.19;5033890;28;20025;-32
2021/04/25 02:18:39;;;;;;;3.05;1.30;;;;;;;26.74;23.99;96967.25;5005825;28;20044;-30
2021/04/25 02:21:05;;;;;;;3.05;1.35;;;;;;;26.75;23.87;96971.56;4989328;28;20029;-29
2021/04/25 02:23:30;;;;;;;1.83;1.20;;;;;;;26.74;23.89;96959.38;5004436;28;20029;-26
2021/04/25 02:25:56;;;;;;;1.60;1.08;;;;;;;26.74;24.06;96956.75;5013426;28;20475;-28
2021/04/25 02:28:21;;;;;;;3.13;1.20;;;;;;;26.73;24.04;96960.28;5015847;28;20044;-30
2021/04/25 02:30:46;;;;;;;2.78;1.30;;;;;;;26.74;23.93;96959.38;5017113;28;20022;-26
2021/04/25 02:33:12;;;;;;;3.47;1.17;;;;;;;26.74;23.95;96954.09;5014708;28;20025;-28
2021/04/25 02:35:37;;;;;;;3.75;1.30;;;;;;;26.73;23.93;96945.34;5014407;28;20420;-31
2021/04/25 02:38:03;;;;;;;4.13;1.20;;;;;;;26.73;24.09;96949.75;5013581;28;20037;-32
2021/04/25 02:40:30;;;;;;;1.33;1.20;;;;;;;26.73;24.01;96955.00;5014167;28;20099;-29
2021/04/25 02:42:55;;;;;;;2.60;1.55;;;;;;;26.72;24.08;96954.19;5012167;28;20037;-30
2021/04/25 02:45:24;;;;;;;3.08;1.35;;;;;;;26.73;24.09;96960.28;5015111;28;20056;-31
2021/04/25 02:47:51;;;;;;;2.55;1.27;;;;;;;26.73;23.99;96960.28;5009031;28;20021;-25
2021/04/25 02:50:18;;;;;;;2.05;1.17;;;;;;;26.72;24.10;96955.94;5016904;28;20112;-28
2021/04/25 02:52:43;;;;;;;3.30;1.45;;;;;;;26.71;24.03;96957.75;5015554;28;20523;-34
2021/04/25 02:55:09;;;;;;;1.27;0.90;;;;;;;26.71;23.94;96949.88;5010646;28;20048;-31
2021/04/25 02:57:34;;;;;;;2.58;1.38;;;;;;;26.72;24.10;96958.59;5008432;28;20678;-31
2021/04/25 02:59:59;;;;;;;2.45;1.40;;;;;;;26.71;24.07;96952.50;5015744;28;20155;-29
2021/04/25 03:02:25;;;;;;;2.80;1.00;;;;;;;26.71;24.05;96951.63;5011001;28;20041;-31
2021/04/25 03:04:50;;;;;;;2.60;0.95;;;;;;;26.70;23.99;96948.16;5017418;28;20033;-30
2021/04/25 03:07:17;;;;;;;1.65;1.10;;;;;;;26.70;24.05;96945.50;5016706;28;20406;-29
2021/04/25 03:09:42;;;;;;;1.55;1.35;;;;;;;26.71;24.08;96941.97;5008489;28;20184;-31
2021/04/25 03:12:08;;;;;;;1.60;0.95;;;;;;;26.70;24.10;96944.69;5013322;28;20506;-27
2021/04/25 03:14:33;;;;;;;1.80;1.15;;;;;;;26.69;24.09;96941.19;5019986;28;20048;-26
2021/04/25 03:16:59;;;;;;;3.38;1.35;;;;;;;26.71;24.14;96941.13;5010662;28;20111;-30
2021/04/25 03:19:24;;;;;;;6.13;1.33;;;;;;;26.70;24.06;96944.69;5010791;28;20033;-29
2021/04/25 03:21:50;;;;;;;1.67;1.10;;;;;;;26.70;24.08;96942.06;5007974;28;20065;-27
2021/04/25 03:24:15;;;;;;;6.72;1.10;;;;;;;26.69;24.09;96948.25;5015039;28;20037;-30
2021/04/25 03:26:40;;;;;;;2.05;1.20;;;;;;;26.69;24.06;96943.81;5016425;28;20549;-25
2021/04/25 03:29:07;;;;;;;1.60;1.20;;;;;;;26.69;24.17;96943.00;5012236;28;20029;-26
2021/04/25 03:31:32;;;;;;;2.97;1.27;;;;;;;26.68;24.05;96941.28;5015241;28;20427;-32
2021/04/25 03:33:58;;;;;;;1.55;1.15;;;;;;;26.68;24.24;96939.50;5010949;28;20033;-31
2021/04/25 03:36:23;;;;;;;2.28;1.17;;;;;;;26.67;24.04;96935.19;5002427;28;20087;-29
2021/04/25 03:38:48;;;;;;;2.60;1.35;;;;;;;26.68;24.22;96949.16;5005474;28;20030;-29
2021/04/25 03:41:14;;;;;;;5.88;1.40;;;;;;;26.67;24.05;96944.84;5022988;28;20099;-27
2021/04/25 03:43:39;;;;;;;1.85;1.02;;;;;;;26.67;24.21;96944.84;5013862;28;20036;-26
2021/04/25 03:46:04;;;;;;;3.03;1.20;;;;;;;26.67;24.25;96942.22;5021114;28;20033;-30
2021/04/25 03:48:30;;;;;;;1.73;1.00;;;;;;;26.67;23.96;96944.84;5017720;28;20559;-29
2021/04/25 03:50:55;;;;;;;1.88;1.23;;;;;;;26.67;24.03;96944.84;5014874;28;20083;-30
2021/04/25 03:53:21;;;;;;;2.90;1.52;;;;;;;26.66;24.23;96948.41;5019301;28;20029;-31
2021/04/25 03:55:46;;;;;;;3.10;1.02;;;;;;;26.66;24.05;96943.97;5020744;28;20414;-31
2021/04/25 03:58:11;;;;;;;2.13;1.25;;;;;;;26.66;24.25;96945.78;5007460;28;20033;-32
2021/04/25 04:00:37;;;;;;;2.42;1.35;;;;;;;26.66;24.14;96945.78;5016615;28;20041;-28
2021/04/25 04:03:02;;;;;;;3.45;1.50;;;;;;;26.66;24.26;96943.16;5010050;28;20040;-30
2021/04/25 04:05:28;;;;;;;2.60;1.27;;;;;;;26.64;23.92;96940.59;5013833;28;20669;-30
2021/04/25 04:07:53;;;;;;;1.45;1.10;;;;;;;26.65;24.18;96946.72;5014007;28;20526;-27
2021/04/25 04:10:19;;;;;;;2.22;1.15;;;;;;;26.65;24.09;96941.47;5019377;28;20033;-33
2021/04/25 04:12:44;;;;;;;3.75;1.38;;;;;;;26.64;24.15;96939.75;5020033;28;20029;-29
2021/04/25 04:15:10;;;;;;;4.15;1.00;;;;;;;26.65;24.09;96949.34;5016492;28;20021;-29
2021/04/25 04:17:35;;;;;;;2.60;1.45;;;;;;;26.64;24.09;96945.00;5016741;28;20036;-29
2021/04/25 04:20:01;;;;;;;1.67;1.15;;;;;;;26.64;24.20;96951.13;5016104;28;20246;-27
2021/04/25 04:22:26;;;;;;;1.20;1.10;;;;;;;26.64;24.19;96952.88;5013844;28;20076;-30
2021/04/25 04:24:52;;;;;;;2.33;1.20;;;;;;;26.64;24.25;96955.50;5016026;28;20138;-29
2021/04/25 04:27:17;;;;;;;2.22;1.20;;;;;;;26.63;24.16;96954.69;5016573;28;20029;-32
2021/04/25 04:29:42;;;;;;;2.25;1.20;;;;;;;26.63;24.21;96956.44;5016336;28;20374;-30
2021/04/25 04:32:08;;;;;;;2.33;1.38;;;;;;;26.64;24.07;96955.50;5020472;28;20021;-29
2021/04/25 04:34:33;;;;;;;2.78;1.35;;;;;;;26.63;24.15;96959.09;5013060;28;20087;-31
2021/04/25 04:36:59;;;;;;;3.40;1.38;;;;;;;26.63;24.21;96969.59;5016791;28;20033;-31
2021/04/25 04:39:24;;;;;;;1.80;1.00;;;;;;;26.63;24.26;96974.84;5007435;28;20033;-27
2021/04/25 04:41:50;;;;;;;2.83;1.20;;;;;;;26.62;24.25;96976.66;5015643;28;20037;-31
2021/04/25 04:44:16;;;;;;;2.70;1.20;;;;;;;26.61;24.16;96978.41;5005044;28;20025;-24
2021/04/25 04:46:42;;;;;;;2.60;1.40;;;;;;;26.62;24.14;96979.28;5012616;28;20099;-30
2021/04/25 04:49:07;;;;;;;3.45;1.40;;;;;;;26.61;24.39;96978.41;5009755;28;20439;-27
2021/04/25 04:51:33;;;;;;;4.65;1.40;;;;;;;26.61;24.16;96996.81;5018869;28;20021;-33
2021/04/25 04:53:58;;;;;;;1.92;1.10;;;;;;;26.61;24.22;96988.94;5015914;28;20022;-31
2021/04/25 04:56:24;;;;;;;4.55;1.35;;;;;;;26.60;24.26;97000.38;5016430;28;20030;-27
2021/04/25 04:58:49;;;;;;;2.08;1.17;;;;;;;26.60;24.29;97008.28;5011904;28;20657;-25
2021/04/25 05:01:14;;;;;;;1.58;1.20;;;;;;;26.61;24.17;97002.06;5019232;28;20025;-28
2021/04/25 05:03:40;;;;;;;2.08;1.50;;;;;;;26.60;24.14;96995.13;5015279;28;20475;-28
2021/04/25 05:06:05;;;;;;;3.72;1.20;;;;;;;26.60;24.19;96997.75;5007469;28;20038;-31
2021/04/25 05:08:31;;;;;;;5.18;1.30;;;;;;;26.60;24.10;96991.63;5011388;28;20029;-29
2021/04/25 05:10:56;;;;;;;3.92;1.30;;;;;;;26.59;24.21;96996.03;5008465;28;20029;-31
2021/04/25 05:13:21;;;;;;;2.03;1.30;;;;;;;26.60;24.08;96992.50;5012169;28;20732;-31
2021/04/25 05:15:47;;;;;;;1.40;1.00;;;;;;;26.60;24.18;96999.53;5017657;28;20025;-30
2021/04/25 05:18:12;;;;;;;8.27;1.90;;;;;;;26.59;24.14;97006.56;5015014;28;20029;-30
2021/04/25 05:20:38;;;;;;;3.85;1.52;;;;;;;26.60;23.99;97007.41;5009992;28;20029;-31
2021/04/25 05:23:03;;;;;;;3.00;1.48;;;;;;;26.59;24.04;97006.56;5009829;28;20037;-29
2021/04/25 05:25:28;;;;;;;5.35;1.85;;;;;;;26.59;24.24;97009.19;5016789;28;20024;-27
2021/04/25 05:27:54;;;;;;;4.05;1.50;;;;;;;26.59;24.09;97011.81;5010813;28;20517;-33
2021/04/25 05:30:20;;;;;;;2.42;1.20;;;;;;;26.59;24.10;97008.34;5014081;28;20021;-33
2021/04/25 05:32:45;;;;;;;3.63;1.17;;;;;;;26.59;24.01;97006.56;5016122;28;20634;-31
2021/04/25 05:35:11;;;;;;;1.65;1.10;;;;;;;26.58;24.20;97010.13;5009479;28;20043;-27
2021/04/25 05:37:36;;;;;;;1.98;1.10;;;;;;;26.58;24.07;97009.28;5010304;28;20029;-31
2021/04/25 05:40:03;;;;;;;1.45;1.10;;;;;;;26.58;24.29;97010.13;5016012;28;20064;-31
2021/04/25 05:42:29;;;;;;;2.70;1.20;;;;;;;26.57;24.29;97011.06;5014130;28;20037;-32
2021/04/25 05:44:54;;;;;;;2.95;1.48;;;;;;;26.58;24.00;97012.75;5009105;28;20777;-31
2021/04/25 05:47:20;;;;;;;2.22;0.98;;;;;;;26.57;24.23;97008.44;5007954;28;20032;-31
2021/04/25 05:49:45;;;;;;;4.97;1.42;;;;;;;26.57;24.22;97008.44;5016150;28;20141;-28
2021/04/25 05:52:11;;;;;;;2.22;1.08;;;;;;;26.58;24.22;97015.38;5013019;28;20083;-32
2021/04/25 05:54:36;;;;;;;2.35;1.23;;;;;;;26.57;24.09;97013.69;5012849;28;20284;-29
2021/04/25 05:57:02;;;;;;;1.33;0.98;;;;;;;26.57;24.05;97018.94;5014862;28;20029;-28
2021/04/25 05:59:27;;;;;;;2.17;1.33;;;;;;;26.57;24.09;97018.94;5015624;28;20032;-33
2021/04/25 06:01:53;;;;;;;3.72;1.02;;;;;;;26.57;24.09;97024.19;5010270;28;20039;-30
2021/04/25 06:04:18;;;;;;;3.50;0.98;;;;;;;26.58;24.04;97019.81;5015698;28;20040;-32
2021/04/25 06:06:43;;;;;;;2.97;1.17;;;;;;;26.59;24.16;97021.50;5012738;28;20037;-29
2021/04/25 06:09:09;;;;;;;2.72;1.40;;;;;;;26.58;24.13;97020.63;5009350;28;20563;-33
2021/04/25 06:11:35;;;;;;;2.15;1.35;;;;;;;26.59;23.99;97022.31;5014787;28;20411;-32
2021/04/25 06:14:00;;;;;;;2.60;1.27;;;;;;;26.60;24.05;97033.69;5009642;28;20030;-31
2021/04/25 06:16:26;;;;;;;2.25;1.20;;;;;;;26.60;24.18;97034.56;5013350;28;20132;-26
2021/04/25 06:18:51;;;;;;;1.75;1.05;;;;;;;26.60;23.99;97029.28;5007709;28;20036;-29
2021/04/25 06:21:17;;;;;;;2.28;1.30;;;;;;;26.61;24.12;97040.66;5010708;28;20025;-32
2021/04/25 06:23:42;;;;;;;2.78;1.40;;;;;;;26.61;24.07;97036.25;5004875;28;20483;-29
2021/04/25 06:26:07;;;;;;;2.38;1.08;;;;;;;26.61;23.98;97036.25;5010664;28;20151;-29
2021/04/25 06:28:33;;;;;;;4.65;1.40;;;;;;;26.61;24.13;97030.13;5012860;28;20064;-32
2021/04/25 06:30:58;;;;;;;8.88;1.63;;;;;;;26.61;24.02;97040.66;5008744;28;20025;-33
2021/04/25 06:33:24;;;;;;;4.07;1.70;;;;;;;26.61;24.07;97035.38;5009458;28;20053;-28
2021/04/25 06:35:49;;;;;;;11.55;2.20;;;;;;;26.61;24.04;97038.00;5013280;28;20037;-27
2021/04/25 06:38:17;;;;;;;6.25;2.08;;;;;;;26.61;24.07;97041.50;5017120;28;20033;-30
2021/04/25 06:40:43;;;;;;;7.55;1.73;;;;;;;26.61;24.14;97036.25;5012458;28;20033;-28
2021/04/25 06:43:08;;;;;;;7.65;2.42;;;;;;;26.61;24.03;97038.00;5010037;28;20517;-31
2021/04/25 06:45:34;;;;;;;14.40;2.13;;;;;;;26.62;24.05;97037.09;5008962;28;20025;-30
2021/04/25 06:48:01;;;;;;;6.25;1.95;;;;;;;26.63;24.12;97040.56;5008452;28;20033;-26
2021/04/25 06:50:27;;;;;;;6.85;1.98;;;;;;;26.63;24.05;97044.06;5009837;28;20087;-29
2021/04/25 06:52:52;;;;;;;4.30;2.10;;;;;;;26.64;23.93;97035.22;5008049;28;20025;-28
2021/04/25 06:55:19;;;;;;;6.78;2.13;;;;;;;26.65;23.95;97046.59;5006272;28;20052;-30
2021/04/25 06:57:46;;;;;;;4.93;2.25;;;;;;;26.66;23.86;97043.03;5010544;28;20578;-31
2021/04/25 07:00:12;;;;;;;3.38;1.95;;;;;;;26.65;24.04;97041.34;5007743;28;20021;-29
2021/04/25 07:02:38;;;;;;;2.80;1.40;;;;;;;26.68;23.85;97041.16;5000367;28;20045;-31
2021/04/25 07:05:03;;;;;;;4.13;2.33;;;;;;;26.68;24.01;97046.44;5004129;28;20049;-28
2021/04/25 07:07:29;;;;;;;4.93;1.95;;;;;;;26.68;23.99;97047.28;5009006;28;20041;-31
2021/04/25 07:09:54;;;;;;;5.32;2.03;;;;;;;26.70;23.78;97049.84;5006571;28;20029;-31
2021/04/25 07:12:20;;;;;;;3.88;1.90;;;;;;;26.70;23.90;97049.84;5007702;28;20025;-29
2021/04/25 07:14:45;;;;;;;6.32;2.13;;;;;;;26.71;23.91;97044.50;5014851;28;20062;-31
2021/04/25 07:17:10;;;;;;;2.80;1.95;;;;;;;26.73;23.86;97049.66;5014846;28;20104;-29
2021/04/25 07:19:36;;;;;;;3.33;2.03;;;;;;;26.74;23.96;97046.13;5011963;28;20025;-30
2021/04/25 07:22:01;;;;;;;3.70;1.85;;;;;;;26.74;23.71;97048.75;5013303;28;20127;-29
2021/04/25 07:24:26;;;;;;;4.03;1.90;;;;;;;26.75;23.90;97053.06;5010955;28;20037;-31
2021/04/25 07:26:52;;;;;;;3.20;1.67;;;;;;;26.76;23.87;97049.50;5013613;28;20038;-28
2021/04/25 07:29:17;;;;;;;7.57;2.30;;;;;;;26.77;23.86;97045.94;5011472;28;20032;-25
2021/04/25 07:31:43;;;;;;;4.22;1.63;;;;;;;26.78;24.05;97050.28;5013394;28;20072;-27
2021/04/25 07:34:08;;;;;;;2.97;1.60;;;;;;;26.79;23.98;97049.34;5011743;28;20032;-29
2021/04/25 07:36:34;;;;;;;8.60;2.20;;;;;;;26.80;23.94;97043.16;5010406;28;20099;-27
2021/04/25 07:38:59;;;;;;;2.92;1.90;;;;;;;26.81;23.88;97041.38;5012544;28;20025;-30
2021/04/25 07:41:25;;;;;;;5.70;2.20;;;;;;;26.82;23.93;97045.69;5026697;28;20513;-26
2021/04/25 07:43:50;;;;;;;4.95;1.88;;;;;;;26.83;24.06;97040.38;5011839;28;20322;-29
2021/04/25 07:46:16;;;;;;;2.35;1.65;;;;;;;26.84;24.12;97044.69;5018251;28;20037;-25
2021/04/25 07:48:41;;;;;;;4.40;2.25;;;;;;;26.85;24.01;97046.38;5022270;28;20056;-29
2021/04/25 07:51:07;;;;;;;8.13;2.13;;;;;;;26.86;24.01;97040.19;5018551;28;20026;-30
2021/04/25 07:53:33;;;;;;;4.10;1.75;;;;;;;26.88;23.91;97038.34;5023443;28;20033;-29
2021/04/25 07:55:58;;;;;;;3.95;1.83;;;;;;;26.90;23.95;97045.28;5015832;28;20029;-33
2021/04/25 07:58:23;;;;;;;3.97;1.80;;;;;;;26.90;24.03;97032.13;5022612;28;20144;-29
2021/04/25 08:00:49;;;;;;;2.53;1.63;;;;;;;26.92;23.90;97032.91;5018496;28;20021;-31
2021/04/25 08:03:14;;;;;;;3.58;1.70;;;;;;;26.92;23.98;97027.66;5022506;28;20038;-26
2021/04/25 08:05:40;;;;;;;2.88;1.80;;;;;;;26.88;24.04;97019.94;5016193;28;20021;-26
2021/04/25 08:08:05;;;;;;;2.60;1.48;;;;;;;26.93;24.14;97024.09;5016027;28;20029;-28
2021/04/25 08:10:31;;;;;;;2.97;1.60;;;;;;;26.94;24.21;97018.78;5018052;28;20033;-29
2021/04/25 08:12:56;;;;;;;4.00;1.60;;;;;;;26.95;24.23;97024.88;5018492;28;20021;-28
2021/04/25 08:15:23;;;;;;;2.88;1.75;;;;;;;26.97;24.12;97025.66;5015327;28;20040;-28
2021/04/25 08:17:50;;;;;;;2.63;1.70;;;;;;;26.91;24.17;97012.78;5019469;28;20033;-31
2021/04/25 08:20:15;;;;;;;4.85;1.55;;;;;;;26.98;24.13;97022.94;5012020;28;20104;-30
2021/04/25 08:22:41;;;;;;;4.07;1.80;;;;;;;27.00;24.26;97025.47;5017020;28;20419;-33
2021/04/25 08:25:07;;;;;;;27.13;5.18;;;;;;;27.01;23.70;97029.81;5015423;28;20525;-28
2021/04/25 08:27:32;;;;;;;12.30;6.35;;;;;;;26.92;22.72;97028.50;5016417;28;20445;-28
2021/04/25 08:29:57;;;;;;;10.32;7.40;;;;;;;26.79;21.93;97033.56;5012142;28;20025;-24
2021/04/25 08:32:23;;;;;;;11.73;7.32;;;;;;;26.59;21.98;97035.47;5011245;28;20022;-29
2021/04/25 08:34:48;;;;;;;11.25;6.30;;;;;;;26.42;21.71;97036.34;5014651;28;20037;-25
2021/04/25 08:37:14;;;;;;;9.75;5.30;;;;;;;26.30;21.97;97039.59;5012589;28;20045;-28
2021/04/25 08:39:39;;;;;;;8.25;4.85;;;;;;;26.19;21.98;97029.63;5011540;28;20036;-27
2021/04/25 08:43:03;;;;;;;9.68;4.22;;;;;;;-148.56;100.00;61375.16;5009567;28;20050;-28
2021/04/25 08:46:28;;;;;;;13.07;4.72;;;;;;;-148.56;100.00;61375.16;5009419;28;20600;-27
2021/04/25 08:49:53;;;;;;;9.38;4.57;;;;;;;-148.56;100.00;61375.16;5010893;28;20785;-25
2021/04/25 08:53:20;;;;;;;8.65;3.78;;;;;;;-148.56;100.00;61375.16;4999731;28;20090;-31
2021/04/25 08:56:44;;;;;;;11.70;3.60;;;;;;;-148.56;100.00;61375.16;5011513;28;20029;-31
2021/04/25 09:00:08;;;;;;;9.60;3.67;;;;;;;-148.56;100.00;61375.16;5009560;28;20036;-28
2021/04/25 09:03:34;;;;;;;10.00;3.55;;;;;;;-148.56;100.00;61375.16;5005261;28;20111;-29
2021/04/25 09:06:58;;;;;;;6.28;3.20;;;;;;;-148.56;100.00;61375.16;5011395;28;20032;-29
2021/04/25 09:10:34;;;;;;;8.68;3.22;;;;;;;-148.56;100.00;61375.16;5023336;28;20055;-26
2021/04/25 09:12:59;;;;;;;8.98;2.75;;;;;;;26.30;22.92;97039.59;5011054;28;21616;-26
2021/04/25 09:15:30;;;;;;;4.18;2.83;;;;;;;26.27;23.05;97032.75;5016180;28;20126;-28
2021/04/25 09:17:59;;;;;;;7.82;2.70;;;;;;;26.29;23.13;97035.28;5007390;28;20518;-31
2021/04/25 09:20:36;;;;;;;15.50;3.25;;;;;;;26.31;23.20;97039.53;5009037;28;20022;-27
2021/04/25 09:23:01;;;;;;;10.85;3.00;;;;;;;26.32;23.22;97035.97;5011504;28;20036;-26
2021/04/25 09:25:27;;;;;;;9.32;2.83;;;;;;;26.35;23.37;97034.97;5013053;28;20037;-28
2021/04/25 09:27:53;;;;;;;10.13;3.38;;;;;;;26.38;23.40;97033.97;5016533;28;20372;-29
2021/04/25 09:30:23;;;;;;;7.72;3.00;;;;;;;26.40;23.35;97032.97;5019748;28;20029;-29
2021/04/25 09:32:59;;;;;;;8.70;3.28;;;;;;;26.42;23.38;97031.09;5016030;28;20033;-30
2021/04/25 09:35:25;;;;;;;9.45;3.10;;;;;;;26.44;23.39;97029.25;5016751;28;20037;-28
2021/04/25 09:37:50;;;;;;;8.57;3.35;;;;;;;26.47;23.34;97028.25;5014526;28;20037;-27
2021/04/25 09:40:18;;;;;;;8.68;2.97;;;;;;;26.48;23.48;97030.75;5019717;28;20032;-29
2021/04/25 09:42:55;;;;;;;6.80;3.03;;;;;;;26.50;23.61;97028.06;5021909;28;20491;-28
2021/04/25 09:45:28;;;;;;;5.28;2.67;;;;;;;26.51;23.53;97026.31;5018242;28;20056;-31
2021/04/25 09:47:54;;;;;;;7.72;2.83;;;;;;;26.52;23.52;97028.84;5018723;28;20029;-31
2021/04/25 09:50:20;;;;;;;6.18;3.00;;;;;;;26.54;23.51;97026.97;5002725;28;20049;-28
2021/04/25 09:52:48;;;;;;;5.90;2.97;;;;;;;26.55;23.64;97023.41;5020328;28;20633;-30
2021/04/25 09:55:24;;;;;;;9.60;3.05;;;;;;;26.57;23.66;97023.34;5018841;28;20033;-28
2021/04/25 09:57:52;;;;;;;7.47;2.92;;;;;;;26.56;23.62;97021.63;5019358;28;20059;-29
2021/04/25 10:00:18;;;;;;;5.40;2.63;;;;;;;26.57;23.66;97024.19;5035453;28;20411;-30
2021/04/25 10:03:09;;;;;;;4.45;2.67;;;;;;;26.60;23.64;97024.03;5016719;28;20562;-30
2021/04/25 10:05:35;;;;;;;4.88;2.95;;;;;;;26.61;23.66;97024.88;5017543;28;20038;-33
2021/04/25 10:08:00;;;;;;;5.18;2.63;;;;;;;26.63;23.69;97024.78;5017583;28;20526;-28
2021/04/25 10:10:26;;;;;;;6.85;2.58;;;;;;;26.61;23.83;97025.72;5013290;28;20112;-28
2021/04/25 10:12:51;;;;;;;4.72;2.83;;;;;;;26.63;23.57;97023.03;5015079;28;20036;-29
2021/04/25 10:15:17;;;;;;;4.95;2.67;;;;;;;26.64;23.70;97022.09;5018860;28;20033;-30
2021/04/25 10:17:44;;;;;;;4.35;2.70;;;;;;;26.64;23.84;97022.09;5017002;28;20037;-28
2021/04/25 10:20:10;;;;;;;5.10;2.70;;;;;;;26.66;23.85;97032.53;5017717;28;20039;-29
2021/04/25 10:22:40;;;;;;;3.70;2.53;;;;;;;26.66;23.69;97032.53;5017747;28;20087;-31
2021/04/25 10:25:08;;;;;;;5.20;2.70;;;;;;;26.67;23.83;97024.56;5019025;28;20087;-30
2021/04/25 10:27:33;;;;;;;5.50;2.75;;;;;;;26.68;23.79;97025.41;5019891;28;20487;-31
2021/04/25 10:30:01;;;;;;;5.03;2.63;;;;;;;26.69;23.78;97013.97;4994912;28;20048;-30
2021/04/25 10:32:26;;;;;;;6.30;2.72;;;;;;;26.68;23.66;97021.00;5016840;28;20970;-30
2021/04/25 10:35:14;;;;;;;4.82;2.60;;;;;;;26.69;23.88;97016.59;5001777;28;20049;-27
2021/04/25 10:37:40;;;;;;;3.95;2.88;;;;;;;26.69;23.77;97012.19;5018240;28;20022;-29
2021/04/25 10:40:18;;;;;;;5.28;2.90;;;;;;;26.70;23.57;97011.25;5014183;28;20040;-33
2021/04/25 10:42:59;;;;;;;5.90;2.80;;;;;;;26.71;23.65;97012.09;5012793;28;20142;-34
2021/04/25 10:45:29;;;;;;;3.75;2.33;;;;;;;26.71;23.58;97009.47;5019007;28;20427;-31
2021/04/25 10:48:19;;;;;;;4.63;2.45;;;;;;;26.71;23.70;97012.09;5020128;28;20029;-32
2021/04/25 10:50:45;;;;;;;4.78;2.80;;;;;;;26.72;23.68;97013.78;5019361;28;20083;-31
2021/04/25 10:53:27;;;;;;;4.43;2.10;;;;;;;26.72;23.64;97011.16;5013651;28;20044;-31
2021/04/25 10:56:11;;;;;;;3.45;2.40;;;;;;;26.72;23.67;97011.16;5016526;28;20095;-27
2021/04/25 10:58:37;;;;;;;3.67;2.47;;;;;;;26.72;23.60;97006.75;5017703;28;20504;-32
2021/04/25 11:01:02;;;;;;;4.68;2.75;;;;;;;26.72;23.73;97001.50;5018561;28;20033;-32
2021/04/25 11:03:27;;;;;;;4.63;2.22;;;;;;;26.73;23.65;97007.59;5017252;28;20029;-34
2021/04/25 11:05:53;;;;;;;3.10;2.22;;;;;;;26.73;23.65;97002.34;5017212;28;20128;-29
2021/04/25 11:08:30;;;;;;;4.05;2.70;;;;;;;26.73;23.69;96997.94;5018903;28;20029;-31
2021/04/25 11:11:10;;;;;;;4.25;2.22;;;;;;;26.74;23.68;97004.06;5018043;28;20104;-27
2021/04/25 11:16:13;;;;;;;3.20;2.20;;;;;;;26.75;23.82;96997.84;5019285;28;20034;-31
2021/04/25 11:18:43;;;;;;;4.97;2.50;;;;;;;26.76;23.57;96989.03;5013339;28;20052;-30
2021/04/25 11:21:35;;;;;;;4.50;2.40;;;;;;;26.77;23.53;97003.03;5019471;28;20037;-30
2021/04/25 11:24:06;;;;;;;4.43;2.70;;;;;;;26.76;23.45;96996.91;5010877;28;20048;-29
2021/04/25 11:26:43;;;;;;;4.75;2.42;;;;;;;26.77;23.59;96998.59;5016771;28;20030;-32
2021/04/25 11:29:16;;;;;;;4.07;2.60;;;;;;;26.78;23.31;96995.06;5016549;28;20037;-32
2021/04/25 11:31:45;;;;;;;3.75;2.45;;;;;;;26.78;23.50;97005.59;5018787;28;20025;-34
2021/04/25 11:34:32;;;;;;;2.95;2.25;;;;;;;26.79;23.40;96991.50;5017416;28;20032;-31
2021/04/25 11:37:00;;;;;;;2.95;2.10;;;;;;;26.80;23.28;96995.81;5016309;28;20028;-32
2021/04/25 11:39:39;;;;;;;3.05;2.13;;;;;;;26.80;23.51;96995.81;5018449;28;20037;-28